Terminal Aerodrome Forecast
Issued by NWS

Home | Current Version | Previous Version | Text Only | Print | Product List | Glossary On
Versions: 1 2 3 4 5 6 7 8 9 10 11 12 13 14 15 16 17 18 19
000
FTUS46 KSGX 242330
TAFCRQ
TAF
KCRQ 242330Z 2500/2524 VRB04KT P6SM SCT009 SCT250
     FM250200 VRB04KT 6SM BR BKN009
     FM250600 VRB04KT 4SM BR OVC007
     FM251800 26005KT P6SM SCT010 SCT250
     FM252000 26009KT P6SM SCT250=

USA.gov is the U.S. government's official web portal to all federal, state and local government web resources and services.